sensor_id;sensor_type;location;lat;lon;timestamp;temperature;humidity
31783;DHT22;18351;47.560;9.708;2024-02-26T00:00:30;7.00;87.50
31783;DHT22;18351;47.560;9.708;2024-02-26T00:02:56;7.10;85.60
31783;DHT22;18351;47.560;9.708;2024-02-26T00:05:22;7.20;84.60
31783;DHT22;18351;47.560;9.708;2024-02-26T00:07:47;7.30;84.40
31783;DHT22;18351;47.560;9.708;2024-02-26T00:10:14;7.30;84.90
31783;DHT22;18351;47.560;9.708;2024-02-26T00:12:40;7.40;85.50
31783;DHT22;18351;47.560;9.708;2024-02-26T00:15:09;7.40;86.10
31783;DHT22;18351;47.560;9.708;2024-02-26T00:17:35;7.40;84.10
31783;DHT22;18351;47.560;9.708;2024-02-26T00:20:02;7.40;84.60
31783;DHT22;18351;47.560;9.708;2024-02-26T00:22:30;7.40;83.90
31783;DHT22;18351;47.560;9.708;2024-02-26T00:24:56;7.50;84.50
31783;DHT22;18351;47.560;9.708;2024-02-26T00:27:21;7.50;84.70
31783;DHT22;18351;47.560;9.708;2024-02-26T00:29:47;7.50;83.40
31783;DHT22;18351;47.560;9.708;2024-02-26T00:32:12;7.50;83.50
31783;DHT22;18351;47.560;9.708;2024-02-26T00:34:38;7.60;83.60
31783;DHT22;18351;47.560;9.708;2024-02-26T00:37:04;7.60;83.00
31783;DHT22;18351;47.560;9.708;2024-02-26T00:39:29;7.70;81.90
31783;DHT22;18351;47.560;9.708;2024-02-26T00:41:55;7.80;82.10
31783;DHT22;18351;47.560;9.708;2024-02-26T00:44:20;7.90;82.00
31783;DHT22;18351;47.560;9.708;2024-02-26T00:46:46;7.90;81.90
31783;DHT22;18351;47.560;9.708;2024-02-26T00:49:11;7.90;82.50
31783;DHT22;18351;47.560;9.708;2024-02-26T00:51:37;7.90;82.50
31783;DHT22;18351;47.560;9.708;2024-02-26T00:54:02;7.90;82.40
31783;DHT22;18351;47.560;9.708;2024-02-26T00:56:28;7.90;83.00
31783;DHT22;18351;47.560;9.708;2024-02-26T00:58:53;7.90;82.30
31783;DHT22;18351;47.560;9.708;2024-02-26T01:01:19;7.90;82.70
31783;DHT22;18351;47.560;9.708;2024-02-26T01:03:45;8.00;82.80
31783;DHT22;18351;47.560;9.708;2024-02-26T01:06:10;8.00;82.10
31783;DHT22;18351;47.560;9.708;2024-02-26T01:08:36;8.00;82.10
31783;DHT22;18351;47.560;9.708;2024-02-26T01:11:03;8.00;82.40
31783;DHT22;18351;47.560;9.708;2024-02-26T01:13:28;8.10;82.40
31783;DHT22;18351;47.560;9.708;2024-02-26T01:15:54;8.10;82.70
31783;DHT22;18351;47.560;9.708;2024-02-26T01:18:20;8.00;83.10
31783;DHT22;18351;47.560;9.708;2024-02-26T01:20:46;8.00;83.60
31783;DHT22;18351;47.560;9.708;2024-02-26T01:23:12;8.10;81.70
31783;DHT22;18351;47.560;9.708;2024-02-26T01:25:38;8.10;81.30
31783;DHT22;18351;47.560;9.708;2024-02-26T01:28:04;8.10;81.80
31783;DHT22;18351;47.560;9.708;2024-02-26T01:30:30;8.10;82.10
31783;DHT22;18351;47.560;9.708;2024-02-26T01:32:56;8.10;82.50
31783;DHT22;18351;47.560;9.708;2024-02-26T01:35:21;8.10;82.80
31783;DHT22;18351;47.560;9.708;2024-02-26T01:37:47;8.10;83.00
31783;DHT22;18351;47.560;9.708;2024-02-26T01:40:13;8.10;82.60
31783;DHT22;18351;47.560;9.708;2024-02-26T01:42:43;8.10;82.70
31783;DHT22;18351;47.560;9.708;2024-02-26T01:45:16;8.10;83.00
31783;DHT22;18351;47.560;9.708;2024-02-26T01:47:48;8.20;82.00
31783;DHT22;18351;47.560;9.708;2024-02-26T01:50:15;8.20;82.50
31783;DHT22;18351;47.560;9.708;2024-02-26T01:52:40;8.30;83.60
31783;DHT22;18351;47.560;9.708;2024-02-26T01:55:07;8.30;82.20
31783;DHT22;18351;47.560;9.708;2024-02-26T01:57:33;8.40;81.10
31783;DHT22;18351;47.560;9.708;2024-02-26T01:59:59;8.40;80.80
31783;DHT22;18351;47.560;9.708;2024-02-26T02:02:25;8.40;81.30
31783;DHT22;18351;47.560;9.708;2024-02-26T02:04:51;8.50;81.80
31783;DHT22;18351;47.560;9.708;2024-02-26T02:07:16;8.50;82.30
31783;DHT22;18351;47.560;9.708;2024-02-26T02:09:43;8.40;81.90
31783;DHT22;18351;47.560;9.708;2024-02-26T02:12:09;8.50;81.80
31783;DHT22;18351;47.560;9.708;2024-02-26T02:14:35;8.50;81.60
31783;DHT22;18351;47.560;9.708;2024-02-26T02:17:00;8.50;81.70
31783;DHT22;18351;47.560;9.708;2024-02-26T02:19:26;8.50;82.90
31783;DHT22;18351;47.560;9.708;2024-02-26T02:21:51;8.50;81.80
31783;DHT22;18351;47.560;9.708;2024-02-26T02:24:17;8.50;82.10
31783;DHT22;18351;47.560;9.708;2024-02-26T02:26:43;8.50;82.90
31783;DHT22;18351;47.560;9.708;2024-02-26T02:29:08;8.50;82.80
31783;DHT22;18351;47.560;9.708;2024-02-26T02:31:35;8.50;81.70
31783;DHT22;18351;47.560;9.708;2024-02-26T02:34:00;8.60;81.90
31783;DHT22;18351;47.560;9.708;2024-02-26T02:36:26;8.60;82.80
31783;DHT22;18351;47.560;9.708;2024-02-26T02:38:52;8.60;83.80
31783;DHT22;18351;47.560;9.708;2024-02-26T02:41:18;8.60;84.40
31783;DHT22;18351;47.560;9.708;2024-02-26T02:43:44;8.60;84.60
31783;DHT22;18351;47.560;9.708;2024-02-26T02:46:10;8.70;84.20
31783;DHT22;18351;47.560;9.708;2024-02-26T02:48:37;8.60;83.80
31783;DHT22;18351;47.560;9.708;2024-02-26T02:51:03;8.70;85.10
31783;DHT22;18351;47.560;9.708;2024-02-26T02:53:29;8.60;85.20
31783;DHT22;18351;47.560;9.708;2024-02-26T02:55:54;8.60;84.00
31783;DHT22;18351;47.560;9.708;2024-02-26T02:58:20;8.60;84.20
31783;DHT22;18351;47.560;9.708;2024-02-26T03:00:45;8.60;84.10
31783;DHT22;18351;47.560;9.708;2024-02-26T03:03:11;8.60;83.90
31783;DHT22;18351;47.560;9.708;2024-02-26T03:05:36;8.60;83.30
31783;DHT22;18351;47.560;9.708;2024-02-26T03:08:02;8.60;82.80
31783;DHT22;18351;47.560;9.708;2024-02-26T03:10:28;8.70;81.70
31783;DHT22;18351;47.560;9.708;2024-02-26T03:12:54;8.70;83.00
31783;DHT22;18351;47.560;9.708;2024-02-26T03:15:19;8.80;82.80
31783;DHT22;18351;47.560;9.708;2024-02-26T03:17:45;8.70;84.50
31783;DHT22;18351;47.560;9.708;2024-02-26T03:20:10;8.70;84.40
31783;DHT22;18351;47.560;9.708;2024-02-26T03:22:38;8.70;84.30
31783;DHT22;18351;47.560;9.708;2024-02-26T03:25:04;8.60;84.80
31783;DHT22;18351;47.560;9.708;2024-02-26T03:27:30;8.50;84.90
31783;DHT22;18351;47.560;9.708;2024-02-26T03:29:55;8.50;85.50
31783;DHT22;18351;47.560;9.708;2024-02-26T03:32:22;8.50;86.30
31783;DHT22;18351;47.560;9.708;2024-02-26T03:34:47;8.50;88.80
31783;DHT22;18351;47.560;9.708;2024-02-26T03:37:13;8.60;90.00
31783;DHT22;18351;47.560;9.708;2024-02-26T03:39:38;8.60;90.10
31783;DHT22;18351;47.560;9.708;2024-02-26T03:42:04;8.50;90.30
31783;DHT22;18351;47.560;9.708;2024-02-26T03:44:30;8.50;91.50
31783;DHT22;18351;47.560;9.708;2024-02-26T03:46:55;8.50;91.80
31783;DHT22;18351;47.560;9.708;2024-02-26T03:49:21;8.40;92.10
31783;DHT22;18351;47.560;9.708;2024-02-26T03:51:47;8.40;92.90
31783;DHT22;18351;47.560;9.708;2024-02-26T03:54:13;8.30;93.40
31783;DHT22;18351;47.560;9.708;2024-02-26T03:56:39;8.20;94.00
31783;DHT22;18351;47.560;9.708;2024-02-26T03:59:05;8.10;94.60
31783;DHT22;18351;47.560;9.708;2024-02-26T04:01:30;8.10;95.00
31783;DHT22;18351;47.560;9.708;2024-02-26T04:03:56;8.00;95.50
31783;DHT22;18351;47.560;9.708;2024-02-26T04:06:21;7.80;96.30
31783;DHT22;18351;47.560;9.708;2024-02-26T04:08:48;7.80;97.60
31783;DHT22;18351;47.560;9.708;2024-02-26T04:11:14;7.70;99.50
31783;DHT22;18351;47.560;9.708;2024-02-26T04:13:43;7.50;99.90
31783;DHT22;18351;47.560;9.708;2024-02-26T04:16:11;7.40;99.90
31783;DHT22;18351;47.560;9.708;2024-02-26T04:18:37;7.30;99.90
31783;DHT22;18351;47.560;9.708;2024-02-26T04:21:03;7.20;99.90
31783;DHT22;18351;47.560;9.708;2024-02-26T04:23:30;7.20;99.90
31783;DHT22;18351;47.560;9.708;2024-02-26T04:25:56;7.10;99.90
31783;DHT22;18351;47.560;9.708;2024-02-26T04:28:21;7.10;99.90
31783;DHT22;18351;47.560;9.708;2024-02-26T04:30:47;7.20;99.90
31783;DHT22;18351;47.560;9.708;2024-02-26T04:33:13;7.20;99.90
31783;DHT22;18351;47.560;9.708;2024-02-26T04:35:39;7.20;99.90
31783;DHT22;18351;47.560;9.708;2024-02-26T04:38:04;7.30;99.90
31783;DHT22;18351;47.560;9.708;2024-02-26T04:40:30;7.30;99.80
31783;DHT22;18351;47.560;9.708;2024-02-26T04:42:55;7.30;99.40
31783;DHT22;18351;47.560;9.708;2024-02-26T04:45:21;7.30;99.50
31783;DHT22;18351;47.560;9.708;2024-02-26T04:47:46;7.40;99.50
31783;DHT22;18351;47.560;9.708;2024-02-26T04:50:12;7.30;99.00
31783;DHT22;18351;47.560;9.708;2024-02-26T04:52:37;7.30;99.00
31783;DHT22;18351;47.560;9.708;2024-02-26T04:55:03;7.30;98.20
31783;DHT22;18351;47.560;9.708;2024-02-26T04:57:29;7.30;98.10
31783;DHT22;18351;47.560;9.708;2024-02-26T04:59:54;7.30;97.70
31783;DHT22;18351;47.560;9.708;2024-02-26T05:02:20;7.40;97.10
31783;DHT22;18351;47.560;9.708;2024-02-26T05:04:46;7.40;96.50
31783;DHT22;18351;47.560;9.708;2024-02-26T05:07:11;7.40;96.30
31783;DHT22;18351;47.560;9.708;2024-02-26T05:09:37;7.40;96.40
31783;DHT22;18351;47.560;9.708;2024-02-26T05:12:03;7.30;97.00
31783;DHT22;18351;47.560;9.708;2024-02-26T05:14:29;7.30;97.10
31783;DHT22;18351;47.560;9.708;2024-02-26T05:16:54;7.30;97.10
31783;DHT22;18351;47.560;9.708;2024-02-26T05:19:21;7.20;97.00
31783;DHT22;18351;47.560;9.708;2024-02-26T05:21:46;7.20;96.90
31783;DHT22;18351;47.560;9.708;2024-02-26T05:24:14;7.20;97.40
31783;DHT22;18351;47.560;9.708;2024-02-26T05:26:41;7.20;97.10
31783;DHT22;18351;47.560;9.708;2024-02-26T05:29:06;7.20;96.90
31783;DHT22;18351;47.560;9.708;2024-02-26T05:31:32;7.20;97.10
31783;DHT22;18351;47.560;9.708;2024-02-26T05:33:57;7.20;96.90
31783;DHT22;18351;47.560;9.708;2024-02-26T05:36:23;7.10;96.50
31783;DHT22;18351;47.560;9.708;2024-02-26T05:38:49;7.10;96.60
31783;DHT22;18351;47.560;9.708;2024-02-26T05:41:18;7.10;96.60
31783;DHT22;18351;47.560;9.708;2024-02-26T05:43:49;7.20;97.70
31783;DHT22;18351;47.560;9.708;2024-02-26T05:46:19;7.30;99.90
31783;DHT22;18351;47.560;9.708;2024-02-26T05:48:50;7.30;99.90
31783;DHT22;18351;47.560;9.708;2024-02-26T05:51:16;7.20;99.90
31783;DHT22;18351;47.560;9.708;2024-02-26T05:53:41;7.20;99.90
31783;DHT22;18351;47.560;9.708;2024-02-26T05:56:07;7.10;99.90
31783;DHT22;18351;47.560;9.708;2024-02-26T05:58:33;7.10;99.90
31783;DHT22;18351;47.560;9.708;2024-02-26T06:00:58;7.00;99.90
31783;DHT22;18351;47.560;9.708;2024-02-26T06:03:25;7.00;99.90
31783;DHT22;18351;47.560;9.708;2024-02-26T06:05:51;7.00;99.90
31783;DHT22;18351;47.560;9.708;2024-02-26T06:08:16;7.00;99.90
31783;DHT22;18351;47.560;9.708;2024-02-26T06:10:42;6.90;99.90
31783;DHT22;18351;47.560;9.708;2024-02-26T06:13:08;6.90;99.90
31783;DHT22;18351;47.560;9.708;2024-02-26T06:15:33;6.80;99.90
31783;DHT22;18351;47.560;9.708;2024-02-26T06:17:59;6.80;99.90
31783;DHT22;18351;47.560;9.708;2024-02-26T06:20:24;6.80;99.90
31783;DHT22;18351;47.560;9.708;2024-02-26T06:22:51;6.80;99.90
31783;DHT22;18351;47.560;9.708;2024-02-26T06:25:16;6.60;99.90
31783;DHT22;18351;47.560;9.708;2024-02-26T06:27:42;6.50;99.90
31783;DHT22;18351;47.560;9.708;2024-02-26T06:30:07;6.50;99.90
31783;DHT22;18351;47.560;9.708;2024-02-26T06:32:36;6.50;99.90
31783;DHT22;18351;47.560;9.708;2024-02-26T06:35:02;6.50;99.90
31783;DHT22;18351;47.560;9.708;2024-02-26T06:37:32;6.50;99.90
31783;DHT22;18351;47.560;9.708;2024-02-26T06:39:59;6.60;99.90
31783;DHT22;18351;47.560;9.708;2024-02-26T06:42:24;6.60;99.90
31783;DHT22;18351;47.560;9.708;2024-02-26T06:44:50;6.60;99.90
31783;DHT22;18351;47.560;9.708;2024-02-26T06:47:15;6.60;99.90
31783;DHT22;18351;47.560;9.708;2024-02-26T06:49:41;6.70;99.90
31783;DHT22;18351;47.560;9.708;2024-02-26T06:52:06;6.70;99.90
31783;DHT22;18351;47.560;9.708;2024-02-26T06:54:32;6.70;99.90
31783;DHT22;18351;47.560;9.708;2024-02-26T06:56:57;6.80;99.90
31783;DHT22;18351;47.560;9.708;2024-02-26T06:59:23;6.80;99.90
31783;DHT22;18351;47.560;9.708;2024-02-26T07:01:49;6.80;99.90
31783;DHT22;18351;47.560;9.708;2024-02-26T07:04:15;6.80;99.90
31783;DHT22;18351;47.560;9.708;2024-02-26T07:06:40;6.80;99.90
31783;DHT22;18351;47.560;9.708;2024-02-26T07:09:06;6.80;99.90
31783;DHT22;18351;47.560;9.708;2024-02-26T07:11:32;6.90;99.90
31783;DHT22;18351;47.560;9.708;2024-02-26T07:13:58;6.90;99.90
31783;DHT22;18351;47.560;9.708;2024-02-26T07:16:23;6.90;99.90
31783;DHT22;18351;47.560;9.708;2024-02-26T07:18:49;6.90;99.90
31783;DHT22;18351;47.560;9.708;2024-02-26T07:21:15;6.90;99.90
31783;DHT22;18351;47.560;9.708;2024-02-26T07:23:40;6.80;99.90
31783;DHT22;18351;47.560;9.708;2024-02-26T07:26:06;6.90;99.90
31783;DHT22;18351;47.560;9.708;2024-02-26T07:28:33;6.80;99.90
31783;DHT22;18351;47.560;9.708;2024-02-26T07:30:59;6.80;99.90
31783;DHT22;18351;47.560;9.708;2024-02-26T07:33:24;6.80;99.90
31783;DHT22;18351;47.560;9.708;2024-02-26T07:35:50;6.80;99.90
31783;DHT22;18351;47.560;9.708;2024-02-26T07:38:15;7.00;99.90
31783;DHT22;18351;47.560;9.708;2024-02-26T07:40:41;7.10;99.90
31783;DHT22;18351;47.560;9.708;2024-02-26T07:43:07;7.20;99.90
31783;DHT22;18351;47.560;9.708;2024-02-26T07:45:32;7.30;99.90
31783;DHT22;18351;47.560;9.708;2024-02-26T07:47:58;7.40;99.90
31783;DHT22;18351;47.560;9.708;2024-02-26T07:50:24;7.60;99.90
31783;DHT22;18351;47.560;9.708;2024-02-26T07:52:49;7.70;99.90
31783;DHT22;18351;47.560;9.708;2024-02-26T07:55:16;7.80;99.90
31783;DHT22;18351;47.560;9.708;2024-02-26T07:57:42;7.80;99.90
31783;DHT22;18351;47.560;9.708;2024-02-26T08:00:09;8.00;99.90
31783;DHT22;18351;47.560;9.708;2024-02-26T08:02:36;8.10;99.90
31783;DHT22;18351;47.560;9.708;2024-02-26T08:05:01;8.20;99.90
31783;DHT22;18351;47.560;9.708;2024-02-26T08:07:27;8.40;99.90
31783;DHT22;18351;47.560;9.708;2024-02-26T08:09:53;8.60;99.90
31783;DHT22;18351;47.560;9.708;2024-02-26T08:12:19;8.70;99.90
31783;DHT22;18351;47.560;9.708;2024-02-26T08:14:44;8.80;99.90
31783;DHT22;18351;47.560;9.708;2024-02-26T08:17:10;8.90;99.90
31783;DHT22;18351;47.560;9.708;2024-02-26T08:19:36;9.00;99.90
31783;DHT22;18351;47.560;9.708;2024-02-26T08:22:02;9.10;99.90
31783;DHT22;18351;47.560;9.708;2024-02-26T08:24:27;9.10;99.90
31783;DHT22;18351;47.560;9.708;2024-02-26T08:26:53;9.20;99.90
31783;DHT22;18351;47.560;9.708;2024-02-26T08:29:19;9.20;99.90
31783;DHT22;18351;47.560;9.708;2024-02-26T08:31:44;9.30;99.90
31783;DHT22;18351;47.560;9.708;2024-02-26T08:34:10;9.40;99.90
31783;DHT22;18351;47.560;9.708;2024-02-26T08:36:36;9.40;99.90
31783;DHT22;18351;47.560;9.708;2024-02-26T08:39:01;9.50;99.90
31783;DHT22;18351;47.560;9.708;2024-02-26T08:41:27;9.60;99.90
31783;DHT22;18351;47.560;9.708;2024-02-26T08:43:53;9.60;99.90
31783;DHT22;18351;47.560;9.708;2024-02-26T08:46:20;9.70;99.90
31783;DHT22;18351;47.560;9.708;2024-02-26T08:48:45;9.70;97.60
31783;DHT22;18351;47.560;9.708;2024-02-26T08:51:11;9.60;98.50
31783;DHT22;18351;47.560;9.708;2024-02-26T08:53:36;9.60;98.50
31783;DHT22;18351;47.560;9.708;2024-02-26T08:56:02;9.70;99.20
31783;DHT22;18351;47.560;9.708;2024-02-26T08:58:28;9.50;99.90
31783;DHT22;18351;47.560;9.708;2024-02-26T09:00:54;9.40;99.90
31783;DHT22;18351;47.560;9.708;2024-02-26T09:03:19;9.40;99.90
31783;DHT22;18351;47.560;9.708;2024-02-26T09:05:45;9.40;99.90
31783;DHT22;18351;47.560;9.708;2024-02-26T09:08:10;9.50;99.90
31783;DHT22;18351;47.560;9.708;2024-02-26T09:10:36;9.30;99.90
31783;DHT22;18351;47.560;9.708;2024-02-26T09:13:01;9.40;99.90
31783;DHT22;18351;47.560;9.708;2024-02-26T09:15:27;9.50;99.90
31783;DHT22;18351;47.560;9.708;2024-02-26T09:17:53;9.60;99.90
31783;DHT22;18351;47.560;9.708;2024-02-26T09:20:18;9.80;99.90
31783;DHT22;18351;47.560;9.708;2024-02-26T09:22:47;9.90;99.20
31783;DHT22;18351;47.560;9.708;2024-02-26T09:25:13;10.10;98.50
31783;DHT22;18351;47.560;9.708;2024-02-26T09:27:43;10.20;96.70
31783;DHT22;18351;47.560;9.708;2024-02-26T09:30:12;10.20;95.80
31783;DHT22;18351;47.560;9.708;2024-02-26T09:32:39;10.30;95.60
31783;DHT22;18351;47.560;9.708;2024-02-26T09:35:08;10.40;96.20
31783;DHT22;18351;47.560;9.708;2024-02-26T09:37:33;10.50;97.10
31783;DHT22;18351;47.560;9.708;2024-02-26T09:40:00;10.70;97.00
31783;DHT22;18351;47.560;9.708;2024-02-26T09:42:26;10.80;95.80
31783;DHT22;18351;47.560;9.708;2024-02-26T09:44:54;11.10;95.90
31783;DHT22;18351;47.560;9.708;2024-02-26T09:47:26;11.20;96.20
31783;DHT22;18351;47.560;9.708;2024-02-26T09:49:53;11.20;96.40
31783;DHT22;18351;47.560;9.708;2024-02-26T09:52:20;11.20;96.10
31783;DHT22;18351;47.560;9.708;2024-02-26T09:54:49;11.30;95.50
31783;DHT22;18351;47.560;9.708;2024-02-26T09:57:16;11.50;95.80
31783;DHT22;18351;47.560;9.708;2024-02-26T09:59:43;11.60;93.80
31783;DHT22;18351;47.560;9.708;2024-02-26T10:02:12;11.70;92.50
31783;DHT22;18351;47.560;9.708;2024-02-26T10:04:39;11.80;92.50
31783;DHT22;18351;47.560;9.708;2024-02-26T10:07:10;11.90;92.40
31783;DHT22;18351;47.560;9.708;2024-02-26T10:09:36;12.10;92.00
31783;DHT22;18351;47.560;9.708;2024-02-26T10:12:03;12.10;91.00
31783;DHT22;18351;47.560;9.708;2024-02-26T10:14:30;12.20;91.20
31783;DHT22;18351;47.560;9.708;2024-02-26T10:16:56;12.40;90.60
31783;DHT22;18351;47.560;9.708;2024-02-26T10:19:28;12.50;90.20
31783;DHT22;18351;47.560;9.708;2024-02-26T10:21:58;12.60;91.20
31783;DHT22;18351;47.560;9.708;2024-02-26T10:24:28;12.70;91.90
31783;DHT22;18351;47.560;9.708;2024-02-26T10:26:55;12.90;91.00
31783;DHT22;18351;47.560;9.708;2024-02-26T10:29:21;13.00;91.00
31783;DHT22;18351;47.560;9.708;2024-02-26T10:31:47;13.10;90.50
31783;DHT22;18351;47.560;9.708;2024-02-26T10:34:14;13.30;91.50
31783;DHT22;18351;47.560;9.708;2024-02-26T10:36:40;13.50;91.20
31783;DHT22;18351;47.560;9.708;2024-02-26T10:39:09;13.40;89.90
31783;DHT22;18351;47.560;9.708;2024-02-26T10:41:36;13.10;89.50
31783;DHT22;18351;47.560;9.708;2024-02-26T10:44:02;12.80;90.90
31783;DHT22;18351;47.560;9.708;2024-02-26T10:46:28;12.70;91.60
31783;DHT22;18351;47.560;9.708;2024-02-26T10:48:54;12.50;92.10
31783;DHT22;18351;47.560;9.708;2024-02-26T10:51:26;12.40;92.30
31783;DHT22;18351;47.560;9.708;2024-02-26T10:53:55;12.20;92.60
31783;DHT22;18351;47.560;9.708;2024-02-26T10:56:24;12.00;92.20
31783;DHT22;18351;47.560;9.708;2024-02-26T10:58:51;11.50;92.90
31783;DHT22;18351;47.560;9.708;2024-02-26T11:01:18;11.30;93.40
31783;DHT22;18351;47.560;9.708;2024-02-26T11:03:44;11.30;94.40
31783;DHT22;18351;47.560;9.708;2024-02-26T11:06:12;11.40;94.70
31783;DHT22;18351;47.560;9.708;2024-02-26T11:08:38;11.50;95.40
31783;DHT22;18351;47.560;9.708;2024-02-26T11:11:05;11.50;95.00
31783;DHT22;18351;47.560;9.708;2024-02-26T11:13:31;11.50;95.30
31783;DHT22;18351;47.560;9.708;2024-02-26T11:15:57;11.50;95.20
31783;DHT22;18351;47.560;9.708;2024-02-26T11:18:26;11.20;95.40
31783;DHT22;18351;47.560;9.708;2024-02-26T11:20:54;11.20;96.20
31783;DHT22;18351;47.560;9.708;2024-02-26T11:23:22;11.30;95.60
31783;DHT22;18351;47.560;9.708;2024-02-26T11:25:50;11.20;95.30
31783;DHT22;18351;47.560;9.708;2024-02-26T11:28:19;11.20;96.10
31783;DHT22;18351;47.560;9.708;2024-02-26T11:30:48;11.20;96.60
31783;DHT22;18351;47.560;9.708;2024-02-26T11:33:15;11.10;96.10
31783;DHT22;18351;47.560;9.708;2024-02-26T11:35:41;11.00;96.90
31783;DHT22;18351;47.560;9.708;2024-02-26T11:38:06;11.00;97.20
31783;DHT22;18351;47.560;9.708;2024-02-26T11:40:33;11.00;97.40
31783;DHT22;18351;47.560;9.708;2024-02-26T11:42:59;11.10;96.80
31783;DHT22;18351;47.560;9.708;2024-02-26T11:48:16;11.00;96.60
31783;DHT22;18351;47.560;9.708;2024-02-26T11:50:49;10.50;96.30
31783;DHT22;18351;47.560;9.708;2024-02-26T11:53:29;10.30;97.80
31783;DHT22;18351;47.560;9.708;2024-02-26T11:59:11;10.10;97.80
31783;DHT22;18351;47.560;9.708;2024-02-26T12:01:47;9.90;98.30
31783;DHT22;18351;47.560;9.708;2024-02-26T12:04:22;9.70;98.70
31783;DHT22;18351;47.560;9.708;2024-02-26T12:06:52;9.60;98.80
31783;DHT22;18351;47.560;9.708;2024-02-26T12:09:48;9.60;99.20
31783;DHT22;18351;47.560;9.708;2024-02-26T12:12:18;9.60;99.90
31783;DHT22;18351;47.560;9.708;2024-02-26T12:14:56;9.60;99.90
31783;DHT22;18351;47.560;9.708;2024-02-26T12:17:25;9.50;99.90
31783;DHT22;18351;47.560;9.708;2024-02-26T12:19:51;9.50;99.90
31783;DHT22;18351;47.560;9.708;2024-02-26T12:22:19;9.50;99.70
31783;DHT22;18351;47.560;9.708;2024-02-26T12:24:44;9.30;99.90
31783;DHT22;18351;47.560;9.708;2024-02-26T12:27:10;9.40;98.50
31783;DHT22;18351;47.560;9.708;2024-02-26T12:29:36;9.40;98.50
31783;DHT22;18351;47.560;9.708;2024-02-26T12:32:03;9.50;98.50
31783;DHT22;18351;47.560;9.708;2024-02-26T12:34:29;9.50;98.20
31783;DHT22;18351;47.560;9.708;2024-02-26T12:36:55;9.40;97.70
31783;DHT22;18351;47.560;9.708;2024-02-26T12:39:21;9.40;97.30
31783;DHT22;18351;47.560;9.708;2024-02-26T12:41:46;9.50;96.30
31783;DHT22;18351;47.560;9.708;2024-02-26T12:44:16;9.40;96.50
31783;DHT22;18351;47.560;9.708;2024-02-26T12:46:42;9.50;97.10
31783;DHT22;18351;47.560;9.708;2024-02-26T12:49:08;9.50;97.60
31783;DHT22;18351;47.560;9.708;2024-02-26T12:51:33;9.70;98.40
31783;DHT22;18351;47.560;9.708;2024-02-26T12:53:59;9.80;99.10
31783;DHT22;18351;47.560;9.708;2024-02-26T12:56:26;9.90;99.50
31783;DHT22;18351;47.560;9.708;2024-02-26T12:58:53;10.10;99.70
31783;DHT22;18351;47.560;9.708;2024-02-26T13:01:23;10.30;99.90
31783;DHT22;18351;47.560;9.708;2024-02-26T13:03:51;10.40;98.50
31783;DHT22;18351;47.560;9.708;2024-02-26T13:06:18;10.30;97.80
31783;DHT22;18351;47.560;9.708;2024-02-26T13:08:47;10.20;98.30
31783;DHT22;18351;47.560;9.708;2024-02-26T13:11:13;10.30;99.50
31783;DHT22;18351;47.560;9.708;2024-02-26T13:13:39;10.50;99.40
31783;DHT22;18351;47.560;9.708;2024-02-26T13:16:07;10.60;98.70
31783;DHT22;18351;47.560;9.708;2024-02-26T13:18:34;10.80;98.70
31783;DHT22;18351;47.560;9.708;2024-02-26T13:21:09;10.80;98.10
31783;DHT22;18351;47.560;9.708;2024-02-26T13:23:35;10.80;98.60
31783;DHT22;18351;47.560;9.708;2024-02-26T13:26:01;10.90;99.00
31783;DHT22;18351;47.560;9.708;2024-02-26T13:28:26;10.90;99.00
31783;DHT22;18351;47.560;9.708;2024-02-26T13:30:56;11.00;99.20
31783;DHT22;18351;47.560;9.708;2024-02-26T13:33:35;11.00;99.10
31783;DHT22;18351;47.560;9.708;2024-02-26T13:36:01;11.10;98.80
31783;DHT22;18351;47.560;9.708;2024-02-26T13:38:27;11.30;98.80
31783;DHT22;18351;47.560;9.708;2024-02-26T13:40:54;11.40;98.70
31783;DHT22;18351;47.560;9.708;2024-02-26T13:43:19;11.50;99.30
31783;DHT22;18351;47.560;9.708;2024-02-26T13:45:46;11.70;99.40
31783;DHT22;18351;47.560;9.708;2024-02-26T13:48:12;11.70;99.10
31783;DHT22;18351;47.560;9.708;2024-02-26T13:50:39;11.80;99.00
31783;DHT22;18351;47.560;9.708;2024-02-26T13:53:05;11.90;98.60
31783;DHT22;18351;47.560;9.708;2024-02-26T13:55:31;12.00;98.60
31783;DHT22;18351;47.560;9.708;2024-02-26T13:57:58;12.10;98.30
31783;DHT22;18351;47.560;9.708;2024-02-26T14:00:24;12.20;98.00
31783;DHT22;18351;47.560;9.708;2024-02-26T14:02:52;12.30;97.90
31783;DHT22;18351;47.560;9.708;2024-02-26T14:05:17;12.40;98.50
31783;DHT22;18351;47.560;9.708;2024-02-26T14:07:43;12.50;97.90
31783;DHT22;18351;47.560;9.708;2024-02-26T14:10:11;12.50;97.60
31783;DHT22;18351;47.560;9.708;2024-02-26T14:12:37;12.60;97.60
31783;DHT22;18351;47.560;9.708;2024-02-26T14:15:05;12.60;97.40
31783;DHT22;18351;47.560;9.708;2024-02-26T14:17:30;12.60;96.70
31783;DHT22;18351;47.560;9.708;2024-02-26T14:19:56;12.60;96.70
31783;DHT22;18351;47.560;9.708;2024-02-26T14:22:22;12.60;96.10
31783;DHT22;18351;47.560;9.708;2024-02-26T14:24:47;12.50;92.90
31783;DHT22;18351;47.560;9.708;2024-02-26T14:27:13;12.60;93.50
31783;DHT22;18351;47.560;9.708;2024-02-26T14:29:43;12.50;92.90
31783;DHT22;18351;47.560;9.708;2024-02-26T14:32:09;12.60;92.30
31783;DHT22;18351;47.560;9.708;2024-02-26T14:34:35;12.60;92.20
31783;DHT22;18351;47.560;9.708;2024-02-26T14:37:00;12.60;91.90
31783;DHT22;18351;47.560;9.708;2024-02-26T14:39:26;12.60;91.60
31783;DHT22;18351;47.560;9.708;2024-02-26T14:41:52;12.70;91.50
31783;DHT22;18351;47.560;9.708;2024-02-26T14:44:17;12.60;91.50
31783;DHT22;18351;47.560;9.708;2024-02-26T14:46:43;12.70;91.40
31783;DHT22;18351;47.560;9.708;2024-02-26T14:49:08;12.70;91.80
31783;DHT22;18351;47.560;9.708;2024-02-26T14:51:34;12.60;90.80
31783;DHT22;18351;47.560;9.708;2024-02-26T14:54:00;12.60;90.40
31783;DHT22;18351;47.560;9.708;2024-02-26T14:56:27;12.60;91.30
31783;DHT22;18351;47.560;9.708;2024-02-26T14:58:52;12.60;91.20
31783;DHT22;18351;47.560;9.708;2024-02-26T15:01:18;12.50;91.60
31783;DHT22;18351;47.560;9.708;2024-02-26T15:03:44;12.50;91.20
31783;DHT22;18351;47.560;9.708;2024-02-26T15:06:09;12.50;91.00
31783;DHT22;18351;47.560;9.708;2024-02-26T15:08:35;12.40;89.50
31783;DHT22;18351;47.560;9.708;2024-02-26T15:11:01;12.30;87.60
31783;DHT22;18351;47.560;9.708;2024-02-26T15:13:27;12.30;87.80
31783;DHT22;18351;47.560;9.708;2024-02-26T15:15:52;12.30;87.30
31783;DHT22;18351;47.560;9.708;2024-02-26T15:18:18;12.30;87.30
31783;DHT22;18351;47.560;9.708;2024-02-26T15:20:44;12.20;87.50
31783;DHT22;18351;47.560;9.708;2024-02-26T15:23:11;12.30;89.60
31783;DHT22;18351;47.560;9.708;2024-02-26T15:25:36;12.20;90.90
31783;DHT22;18351;47.560;9.708;2024-02-26T15:28:02;12.10;92.50
31783;DHT22;18351;47.560;9.708;2024-02-26T15:30:28;12.00;91.90
31783;DHT22;18351;47.560;9.708;2024-02-26T15:32:55;12.00;91.20
31783;DHT22;18351;47.560;9.708;2024-02-26T15:35:21;11.90;91.30
31783;DHT22;18351;47.560;9.708;2024-02-26T15:37:46;11.80;92.50
31783;DHT22;18351;47.560;9.708;2024-02-26T15:40:12;11.80;92.60